METAR Data

Data at: 2137 UTC 01 Dec 2021

METAR for:KIZG (Fryeburg/Eastern Slo, ME, US)
Text:KIZG 012054Z AUTO 29003KT 10SM CLR 03/M06 A3003 RMK AO2 SLP175 T00281061 53016
Temperature: 2.8°C ( 37°F)
Dewpoint: -6.1°C ( 21°F) [RH = 52%]
Pressure (altimeter):30.03 inches Hg (1017.0 mb) [Sea level pressure: 1017.5 mb]
Winds:from the WNW (290 degrees) at 3 MPH (3 knots; 1.5 m/s)
Visibility:10 or more sm (16+ km)
Ceiling:at least 12,000 feet AGL
Clouds:sky clear below 12,000 feet AGL
QC Flag:automated observation with no human augmentation